sensor_id;sensor_type;location;lat;lon;timestamp;pressure;altitude;pressure_sealevel;temperature
70415;BMP280;57837;52.064;113.478;2023-11-21T00:02:05;93960.97;;;-5.49
70415;BMP280;57837;52.064;113.478;2023-11-21T00:05:09;93967.81;;;-5.49
70415;BMP280;57837;52.064;113.478;2023-11-21T00:08:13;93963.50;;;-5.49
70415;BMP280;57837;52.064;113.478;2023-11-21T00:11:16;93961.38;;;-5.47
70415;BMP280;57837;52.064;113.478;2023-11-21T00:14:20;93968.00;;;-5.42
70415;BMP280;57837;52.064;113.478;2023-11-21T00:17:24;93962.63;;;-5.29
70415;BMP280;57837;52.064;113.478;2023-11-21T00:20:28;93959.22;;;-4.96
70415;BMP280;57837;52.064;113.478;2023-11-21T00:23:31;93969.59;;;-4.73
70415;BMP280;57837;52.064;113.478;2023-11-21T00:26:35;93973.81;;;-4.49
70415;BMP280;57837;52.064;113.478;2023-11-21T00:29:41;93980.47;;;-4.29
70415;BMP280;57837;52.064;113.478;2023-11-21T00:32:46;93983.56;;;-4.20
70415;BMP280;57837;52.064;113.478;2023-11-21T00:35:50;93980.56;;;-4.10
70415;BMP280;57837;52.064;113.478;2023-11-21T00:38:54;93987.13;;;-3.93
70415;BMP280;57837;52.064;113.478;2023-11-21T00:41:59;93977.06;;;-3.74
70415;BMP280;57837;52.064;113.478;2023-11-21T00:45:03;93992.31;;;-3.54
70415;BMP280;57837;52.064;113.478;2023-11-21T00:48:07;93988.50;;;-3.48
70415;BMP280;57837;52.064;113.478;2023-11-21T00:51:11;93999.41;;;-3.28
70415;BMP280;57837;52.064;113.478;2023-11-21T00:54:15;94007.72;;;-3.12
70415;BMP280;57837;52.064;113.478;2023-11-21T00:57:19;94003.94;;;-3.03
70415;BMP280;57837;52.064;113.478;2023-11-21T01:00:23;94011.81;;;-2.88
70415;BMP280;57837;52.064;113.478;2023-11-21T01:03:26;94020.34;;;-2.77
70415;BMP280;57837;52.064;113.478;2023-11-21T01:06:31;94026.66;;;-2.68
70415;BMP280;57837;52.064;113.478;2023-11-21T01:09:35;94020.03;;;-2.56
70415;BMP280;57837;52.064;113.478;2023-11-21T01:12:39;94022.97;;;-2.74
70415;BMP280;57837;52.064;113.478;2023-11-21T01:15:43;94016.63;;;-2.99
70415;BMP280;57837;52.064;113.478;2023-11-21T01:18:47;94013.16;;;-2.75
70415;BMP280;57837;52.064;113.478;2023-11-21T01:21:51;94006.03;;;-2.50
70415;BMP280;57837;52.064;113.478;2023-11-21T01:24:56;94019.34;;;-2.34
70415;BMP280;57837;52.064;113.478;2023-11-21T01:28:01;94013.47;;;-2.19
70415;BMP280;57837;52.064;113.478;2023-11-21T01:31:05;94017.13;;;-2.36
70415;BMP280;57837;52.064;113.478;2023-11-21T01:34:11;94024.97;;;-2.25
70415;BMP280;57837;52.064;113.478;2023-11-21T01:37:15;94007.63;;;-1.77
70415;BMP280;57837;52.064;113.478;2023-11-21T01:40:20;94012.31;;;-1.79
70415;BMP280;57837;52.064;113.478;2023-11-21T01:43:23;94014.03;;;-1.60
70415;BMP280;57837;52.064;113.478;2023-11-21T01:46:28;94023.84;;;-1.59
70415;BMP280;57837;52.064;113.478;2023-11-21T01:49:32;94027.38;;;-1.67
70415;BMP280;57837;52.064;113.478;2023-11-21T01:52:36;94017.56;;;-1.42
70415;BMP280;57837;52.064;113.478;2023-11-21T01:55:40;94015.56;;;-1.29
70415;BMP280;57837;52.064;113.478;2023-11-21T01:58:45;94001.81;;;-1.28
70415;BMP280;57837;52.064;113.478;2023-11-21T02:01:50;94007.78;;;-1.17
70415;BMP280;57837;52.064;113.478;2023-11-21T02:04:54;94010.41;;;-1.10
70415;BMP280;57837;52.064;113.478;2023-11-21T02:08:18;94008.94;;;-1.11
70415;BMP280;57837;52.064;113.478;2023-11-21T02:11:23;94009.31;;;-1.09
70415;BMP280;57837;52.064;113.478;2023-11-21T02:14:27;94008.72;;;-0.99
70415;BMP280;57837;52.064;113.478;2023-11-21T02:17:31;94015.16;;;-0.75
70415;BMP280;57837;52.064;113.478;2023-11-21T02:20:35;94005.81;;;-0.68
70415;BMP280;57837;52.064;113.478;2023-11-21T02:23:42;94004.72;;;-0.33
70415;BMP280;57837;52.064;113.478;2023-11-21T02:27:13;94008.47;;;0.21
70415;BMP280;57837;52.064;113.478;2023-11-21T02:30:16;94003.66;;;0.12
70415;BMP280;57837;52.064;113.478;2023-11-21T02:33:20;94009.09;;;0.11
70415;BMP280;57837;52.064;113.478;2023-11-21T02:36:25;94017.88;;;0.17
70415;BMP280;57837;52.064;113.478;2023-11-21T02:39:29;94002.50;;;0.03
70415;BMP280;57837;52.064;113.478;2023-11-21T02:42:33;94006.56;;;0.11
70415;BMP280;57837;52.064;113.478;2023-11-21T02:45:36;94011.34;;;0.19
70415;BMP280;57837;52.064;113.478;2023-11-21T02:48:41;94001.06;;;0.60
70415;BMP280;57837;52.064;113.478;2023-11-21T02:51:44;94001.88;;;0.75
70415;BMP280;57837;52.064;113.478;2023-11-21T02:54:48;94003.66;;;0.71
70415;BMP280;57837;52.064;113.478;2023-11-21T02:57:52;93999.25;;;0.64
70415;BMP280;57837;52.064;113.478;2023-11-21T03:00:56;94005.19;;;0.79
70415;BMP280;57837;52.064;113.478;2023-11-21T03:03:59;93993.19;;;0.86
70415;BMP280;57837;52.064;113.478;2023-11-21T03:07:03;93987.09;;;1.05
70415;BMP280;57837;52.064;113.478;2023-11-21T03:10:09;93995.16;;;1.18
70415;BMP280;57837;52.064;113.478;2023-11-21T03:13:14;93984.97;;;1.25
70415;BMP280;57837;52.064;113.478;2023-11-21T03:16:18;93993.00;;;1.23
70415;BMP280;57837;52.064;113.478;2023-11-21T03:19:23;93974.72;;;1.11
70415;BMP280;57837;52.064;113.478;2023-11-21T03:22:28;93970.06;;;1.27
70415;BMP280;57837;52.064;113.478;2023-11-21T03:25:37;93978.81;;;1.29
70415;BMP280;57837;52.064;113.478;2023-11-21T03:28:41;93973.34;;;1.42
70415;BMP280;57837;52.064;113.478;2023-11-21T03:31:45;93970.47;;;1.64
70415;BMP280;57837;52.064;113.478;2023-11-21T03:34:56;93970.47;;;1.96
70415;BMP280;57837;52.064;113.478;2023-11-21T03:38:02;93969.06;;;1.85
70415;BMP280;57837;52.064;113.478;2023-11-21T03:41:06;93971.94;;;1.62
70415;BMP280;57837;52.064;113.478;2023-11-21T03:44:10;93962.81;;;1.57
70415;BMP280;57837;52.064;113.478;2023-11-21T03:47:14;93962.06;;;1.50
70415;BMP280;57837;52.064;113.478;2023-11-21T03:50:18;93957.00;;;1.57
70415;BMP280;57837;52.064;113.478;2023-11-21T03:53:22;93947.16;;;1.87
70415;BMP280;57837;52.064;113.478;2023-11-21T03:56:25;93950.09;;;1.75
70415;BMP280;57837;52.064;113.478;2023-11-21T03:59:29;93944.63;;;1.62
70415;BMP280;57837;52.064;113.478;2023-11-21T04:02:33;93945.72;;;1.61
70415;BMP280;57837;52.064;113.478;2023-11-21T04:05:37;93945.31;;;1.66
70415;BMP280;57837;52.064;113.478;2023-11-21T04:08:41;93947.50;;;1.68
70415;BMP280;57837;52.064;113.478;2023-11-21T04:11:45;93934.38;;;1.52
70415;BMP280;57837;52.064;113.478;2023-11-21T04:14:49;93941.69;;;1.32
70415;BMP280;57837;52.064;113.478;2023-11-21T04:17:55;93946.03;;;1.46
70415;BMP280;57837;52.064;113.478;2023-11-21T04:21:00;93953.72;;;1.60
70415;BMP280;57837;52.064;113.478;2023-11-21T04:24:03;93956.25;;;1.67
70415;BMP280;57837;52.064;113.478;2023-11-21T04:27:07;93954.81;;;1.59
70415;BMP280;57837;52.064;113.478;2023-11-21T04:30:12;93951.16;;;1.56
70415;BMP280;57837;52.064;113.478;2023-11-21T04:33:16;93952.63;;;1.54
70415;BMP280;57837;52.064;113.478;2023-11-21T04:36:19;93957.72;;;1.61
70415;BMP280;57837;52.064;113.478;2023-11-21T04:39:23;93948.63;;;1.78
70415;BMP280;57837;52.064;113.478;2023-11-21T04:42:27;93959.56;;;1.89
70415;BMP280;57837;52.064;113.478;2023-11-21T04:45:32;93947.16;;;1.62
70415;BMP280;57837;52.064;113.478;2023-11-21T04:48:36;93946.00;;;1.38
70415;BMP280;57837;52.064;113.478;2023-11-21T04:51:40;93948.97;;;1.51
70415;BMP280;57837;52.064;113.478;2023-11-21T04:54:44;93952.66;;;1.82
70415;BMP280;57837;52.064;113.478;2023-11-21T04:57:48;93950.41;;;1.98
70415;BMP280;57837;52.064;113.478;2023-11-21T05:00:52;93940.22;;;1.88
70415;BMP280;57837;52.064;113.478;2023-11-21T05:03:56;93938.06;;;1.76
70415;BMP280;57837;52.064;113.478;2023-11-21T05:07:01;93935.16;;;1.63
70415;BMP280;57837;52.064;113.478;2023-11-21T05:10:08;93936.59;;;1.53
70415;BMP280;57837;52.064;113.478;2023-11-21T05:13:15;93933.63;;;1.41
70415;BMP280;57837;52.064;113.478;2023-11-21T05:16:20;93935.09;;;1.42
70415;BMP280;57837;52.064;113.478;2023-11-21T05:19:25;93952.25;;;1.52
70415;BMP280;57837;52.064;113.478;2023-11-21T05:22:30;93943.16;;;1.72
70415;BMP280;57837;52.064;113.478;2023-11-21T05:25:35;93943.88;;;1.72
70415;BMP280;57837;52.064;113.478;2023-11-21T05:28:42;93947.53;;;1.86
70415;BMP280;57837;52.064;113.478;2023-11-21T05:31:47;93943.88;;;1.69
70415;BMP280;57837;52.064;113.478;2023-11-21T05:34:50;93943.88;;;1.58
70415;BMP280;57837;52.064;113.478;2023-11-21T05:37:53;93941.66;;;1.46
70415;BMP280;57837;52.064;113.478;2023-11-21T05:40:57;93933.66;;;1.55
70415;BMP280;57837;52.064;113.478;2023-11-21T05:44:02;93929.69;;;1.61
70415;BMP280;57837;52.064;113.478;2023-11-21T05:47:05;93934.41;;;1.66
70415;BMP280;57837;52.064;113.478;2023-11-21T05:50:11;93931.84;;;1.55
70415;BMP280;57837;52.064;113.478;2023-11-21T05:53:18;93935.88;;;1.60
70415;BMP280;57837;52.064;113.478;2023-11-21T05:56:21;93935.47;;;1.44
70415;BMP280;57837;52.064;113.478;2023-11-21T05:59:25;93934.34;;;1.41
70415;BMP280;57837;52.064;113.478;2023-11-21T06:02:29;93928.56;;;1.55
70415;BMP280;57837;52.064;113.478;2023-11-21T06:05:34;93931.13;;;1.69
70415;BMP280;57837;52.064;113.478;2023-11-21T06:08:37;93915.78;;;1.94
70415;BMP280;57837;52.064;113.478;2023-11-21T06:11:41;93921.63;;;1.87
70415;BMP280;57837;52.064;113.478;2023-11-21T06:14:44;93922.00;;;1.89
70415;BMP280;57837;52.064;113.478;2023-11-21T06:17:49;93917.66;;;1.86
70415;BMP280;57837;52.064;113.478;2023-11-21T06:20:56;93909.25;;;1.71
70415;BMP280;57837;52.064;113.478;2023-11-21T06:24:00;93915.06;;;1.44
70415;BMP280;57837;52.064;113.478;2023-11-21T06:27:05;93917.97;;;1.46
70415;BMP280;57837;52.064;113.478;2023-11-21T06:30:08;93917.63;;;1.51
70415;BMP280;57837;52.064;113.478;2023-11-21T06:33:12;93915.06;;;1.44
70415;BMP280;57837;52.064;113.478;2023-11-21T06:36:15;93914.72;;;1.31
70415;BMP280;57837;52.064;113.478;2023-11-21T06:39:19;93919.75;;;1.10
70415;BMP280;57837;52.064;113.478;2023-11-21T06:42:27;93914.28;;;1.04
70415;BMP280;57837;52.064;113.478;2023-11-21T06:45:32;93918.66;;;1.07
70415;BMP280;57837;52.064;113.478;2023-11-21T06:48:37;93925.59;;;1.14
70415;BMP280;57837;52.064;113.478;2023-11-21T06:51:41;93913.59;;;1.18
70415;BMP280;57837;52.064;113.478;2023-11-21T06:54:48;93913.94;;;1.13
70415;BMP280;57837;52.064;113.478;2023-11-21T06:57:54;93909.56;;;1.17
70415;BMP280;57837;52.064;113.478;2023-11-21T07:00:58;93913.25;;;1.23
70415;BMP280;57837;52.064;113.478;2023-11-21T07:04:02;93914.31;;;1.15
70415;BMP280;57837;52.064;113.478;2023-11-21T07:07:07;93901.91;;;0.99
70415;BMP280;57837;52.064;113.478;2023-11-21T07:10:10;93918.63;;;1.00
70415;BMP280;57837;52.064;113.478;2023-11-21T07:13:14;93914.94;;;0.83
70415;BMP280;57837;52.064;113.478;2023-11-21T07:16:18;93914.56;;;0.78
70415;BMP280;57837;52.064;113.478;2023-11-21T07:19:21;93910.91;;;0.75
70415;BMP280;57837;52.064;113.478;2023-11-21T07:22:25;93909.09;;;0.76
70415;BMP280;57837;52.064;113.478;2023-11-21T07:25:30;93911.56;;;0.61
70415;BMP280;57837;52.064;113.478;2023-11-21T07:28:33;93906.47;;;0.58
70415;BMP280;57837;52.064;113.478;2023-11-21T07:31:37;93905.69;;;0.43
70415;BMP280;57837;52.064;113.478;2023-11-21T07:34:41;93909.00;;;0.51
70415;BMP280;57837;52.064;113.478;2023-11-21T07:37:46;93907.19;;;0.58
70415;BMP280;57837;52.064;113.478;2023-11-21T07:40:50;93896.94;;;0.44
70415;BMP280;57837;52.064;113.478;2023-11-21T07:43:54;93910.00;;;0.32
70415;BMP280;57837;52.064;113.478;2023-11-21T07:46:59;93897.97;;;0.22
70415;BMP280;57837;52.064;113.478;2023-11-21T07:50:04;93910.94;;;0.06
70415;BMP280;57837;52.064;113.478;2023-11-21T07:53:08;93913.16;;;0.11
70415;BMP280;57837;52.064;113.478;2023-11-21T07:56:13;93916.78;;;0.10
70415;BMP280;57837;52.064;113.478;2023-11-21T07:59:16;93905.69;;;-0.15
70415;BMP280;57837;52.064;113.478;2023-11-21T08:02:21;93914.84;;;-0.07
70415;BMP280;57837;52.064;113.478;2023-11-21T08:05:26;93914.44;;;-0.13
70415;BMP280;57837;52.064;113.478;2023-11-21T08:08:38;93922.13;;;-0.06
70415;BMP280;57837;52.064;113.478;2023-11-21T08:11:42;93924.56;;;-0.20
70415;BMP280;57837;52.064;113.478;2023-11-21T08:14:46;93928.88;;;-0.24
70415;BMP280;57837;52.064;113.478;2023-11-21T08:17:50;93927.63;;;0.00
70415;BMP280;57837;52.064;113.478;2023-11-21T08:20:57;93919.88;;;-0.14
70415;BMP280;57837;52.064;113.478;2023-11-21T08:24:01;93927.25;;;-0.43
70415;BMP280;57837;52.064;113.478;2023-11-21T08:27:07;93931.09;;;-0.59
70415;BMP280;57837;52.064;113.478;2023-11-21T08:30:11;93926.78;;;-0.55
70415;BMP280;57837;52.064;113.478;2023-11-21T08:33:17;93927.75;;;-0.67
70415;BMP280;57837;52.064;113.478;2023-11-21T08:36:20;93935.16;;;-0.51
70415;BMP280;57837;52.064;113.478;2023-11-21T08:39:24;93928.56;;;-0.59
70415;BMP280;57837;52.064;113.478;2023-11-21T08:42:27;93931.34;;;-0.72
70415;BMP280;57837;52.064;113.478;2023-11-21T08:45:33;93937.06;;;-0.41
70415;BMP280;57837;52.064;113.478;2023-11-21T08:48:41;93927.78;;;-0.26
70415;BMP280;57837;52.064;113.478;2023-11-21T08:51:45;93936.06;;;-0.33
70415;BMP280;57837;52.064;113.478;2023-11-21T08:54:49;93939.47;;;-0.59
70415;BMP280;57837;52.064;113.478;2023-11-21T08:57:59;93940.34;;;-0.78
70415;BMP280;57837;52.064;113.478;2023-11-21T09:01:04;93950.56;;;-0.74
70415;BMP280;57837;52.064;113.478;2023-11-21T09:04:09;93950.59;;;-0.34
70415;BMP280;57837;52.064;113.478;2023-11-21T09:07:13;93951.84;;;-0.17
70415;BMP280;57837;52.064;113.478;2023-11-21T09:10:16;93952.06;;;-0.32
70415;BMP280;57837;52.064;113.478;2023-11-21T09:13:19;93945.09;;;-0.39
70415;BMP280;57837;52.064;113.478;2023-11-21T09:16:25;93956.22;;;-0.14
70415;BMP280;57837;52.064;113.478;2023-11-21T09:19:29;93963.03;;;-0.25
70415;BMP280;57837;52.064;113.478;2023-11-21T09:22:33;93954.75;;;-0.52
70415;BMP280;57837;52.064;113.478;2023-11-21T09:25:37;93958.88;;;-1.11
70415;BMP280;57837;52.064;113.478;2023-11-21T09:28:41;93953.44;;;-1.36
70415;BMP280;57837;52.064;113.478;2023-11-21T09:31:48;93956.84;;;-0.98
70415;BMP280;57837;52.064;113.478;2023-11-21T09:34:53;93959.06;;;-0.93
70415;BMP280;57837;52.064;113.478;2023-11-21T09:38:01;93969.19;;;-0.63
70415;BMP280;57837;52.064;113.478;2023-11-21T09:41:21;93967.97;;;-0.39
70415;BMP280;57837;52.064;113.478;2023-11-21T09:44:35;93963.03;;;-0.25
70415;BMP280;57837;52.064;113.478;2023-11-21T09:47:40;93967.28;;;-0.36
70415;BMP280;57837;52.064;113.478;2023-11-21T09:50:44;93968.78;;;-0.31
70415;BMP280;57837;52.064;113.478;2023-11-21T09:53:53;93972.66;;;-0.41
70415;BMP280;57837;52.064;113.478;2023-11-21T09:56:59;93973.34;;;-0.44
70415;BMP280;57837;52.064;113.478;2023-11-21T10:00:10;93964.63;;;-0.47
70415;BMP280;57837;52.064;113.478;2023-11-21T10:03:15;93973.03;;;-0.39
70415;BMP280;57837;52.064;113.478;2023-11-21T10:06:21;93973.81;;;-0.35
70415;BMP280;57837;52.064;113.478;2023-11-21T10:09:29;93970.84;;;-0.41
70415;BMP280;57837;52.064;113.478;2023-11-21T10:12:33;93972.97;;;-0.46
70415;BMP280;57837;52.064;113.478;2023-11-21T10:15:39;93981.81;;;-0.33
70415;BMP280;57837;52.064;113.478;2023-11-21T10:18:51;93988.91;;;-0.16
70415;BMP280;57837;52.064;113.478;2023-11-21T10:22:01;93985.91;;;-0.28
70415;BMP280;57837;52.064;113.478;2023-11-21T10:25:10;93975.53;;;-0.80
70415;BMP280;57837;52.064;113.478;2023-11-21T10:28:14;93979.56;;;-1.09
70415;BMP280;57837;52.064;113.478;2023-11-21T10:31:18;93988.34;;;-1.32
70415;BMP280;57837;52.064;113.478;2023-11-21T10:34:21;94000.41;;;-2.21
70415;BMP280;57837;52.064;113.478;2023-11-21T10:37:26;93991.22;;;-3.06
70415;BMP280;57837;52.064;113.478;2023-11-21T10:40:30;93995.25;;;-3.52
70415;BMP280;57837;52.064;113.478;2023-11-21T10:43:34;93995.09;;;-3.75
70415;BMP280;57837;52.064;113.478;2023-11-21T10:46:38;93995.34;;;-3.49
70415;BMP280;57837;52.064;113.478;2023-11-21T10:49:43;93992.59;;;-3.09
70415;BMP280;57837;52.064;113.478;2023-11-21T10:52:46;93996.16;;;-3.29
70415;BMP280;57837;52.064;113.478;2023-11-21T10:56:01;93998.53;;;-3.52
70415;BMP280;57837;52.064;113.478;2023-11-21T10:59:10;94002.19;;;-3.81
70415;BMP280;57837;52.064;113.478;2023-11-21T11:02:24;94001.44;;;-3.97
70415;BMP280;57837;52.064;113.478;2023-11-21T11:05:31;94008.63;;;-4.15
70415;BMP280;57837;52.064;113.478;2023-11-21T11:08:39;94012.53;;;-4.45
70415;BMP280;57837;52.064;113.478;2023-11-21T11:11:43;94009.72;;;-4.56
70415;BMP280;57837;52.064;113.478;2023-11-21T11:14:51;94019.69;;;-4.47
70415;BMP280;57837;52.064;113.478;2023-11-21T11:17:55;94015.59;;;-4.52
70415;BMP280;57837;52.064;113.478;2023-11-21T11:21:23;94026.03;;;-4.53
70415;BMP280;57837;52.064;113.478;2023-11-21T11:28:04;94038.69;;;-4.66
70415;BMP280;57837;52.064;113.478;2023-11-21T11:34:53;94050.66;;;-4.75
70415;BMP280;57837;52.064;113.478;2023-11-21T11:37:59;94057.50;;;-4.75
70415;BMP280;57837;52.064;113.478;2023-11-21T11:41:05;94056.16;;;-4.73
70415;BMP280;57837;52.064;113.478;2023-11-21T11:48:02;94063.94;;;-4.66
70415;BMP280;57837;52.064;113.478;2023-11-21T11:51:14;94047.72;;;-4.77
70415;BMP280;57837;52.064;113.478;2023-11-21T11:54:35;94066.84;;;-4.76
70415;BMP280;57837;52.064;113.478;2023-11-21T11:57:41;94066.66;;;-4.83
70415;BMP280;57837;52.064;113.478;2023-11-21T12:00:45;94080.34;;;-4.84
70415;BMP280;57837;52.064;113.478;2023-11-21T12:07:48;94085.56;;;-3.84
70415;BMP280;57837;52.064;113.478;2023-11-21T12:10:53;94089.75;;;-3.60
70415;BMP280;57837;52.064;113.478;2023-11-21T12:13:58;94082.19;;;-3.29
70415;BMP280;57837;52.064;113.478;2023-11-21T12:17:04;94085.06;;;-2.95
70415;BMP280;57837;52.064;113.478;2023-11-21T12:20:09;94086.63;;;-2.91
70415;BMP280;57837;52.064;113.478;2023-11-21T12:23:23;94082.84;;;-3.32
70415;BMP280;57837;52.064;113.478;2023-11-21T12:26:28;94082.53;;;-3.74
70415;BMP280;57837;52.064;113.478;2023-11-21T12:29:31;94084.75;;;-3.73
70415;BMP280;57837;52.064;113.478;2023-11-21T12:32:36;94090.44;;;-3.76
70415;BMP280;57837;52.064;113.478;2023-11-21T12:35:40;94086.09;;;-3.32
70415;BMP280;57837;52.064;113.478;2023-11-21T12:38:47;94087.44;;;-2.87
70415;BMP280;57837;52.064;113.478;2023-11-21T12:41:50;94090.31;;;-2.88
70415;BMP280;57837;52.064;113.478;2023-11-21T12:48:21;94086.50;;;-3.14
70415;BMP280;57837;52.064;113.478;2023-11-21T12:51:29;94100.22;;;-3.46
70415;BMP280;57837;52.064;113.478;2023-11-21T12:54:33;94094.63;;;-3.52
70415;BMP280;57837;52.064;113.478;2023-11-21T12:57:44;94102.03;;;-3.75
70415;BMP280;57837;52.064;113.478;2023-11-21T13:00:49;94101.50;;;-3.96
70415;BMP280;57837;52.064;113.478;2023-11-21T13:03:57;94102.41;;;-4.16
70415;BMP280;57837;52.064;113.478;2023-11-21T13:07:06;94110.16;;;-4.37
70415;BMP280;57837;52.064;113.478;2023-11-21T13:10:17;94106.97;;;-4.34
70415;BMP280;57837;52.064;113.478;2023-11-21T13:13:22;94101.06;;;-3.86
70415;BMP280;57837;52.064;113.478;2023-11-21T13:16:26;94105.59;;;-3.32
70415;BMP280;57837;52.064;113.478;2023-11-21T13:19:30;94106.00;;;-3.14
70415;BMP280;57837;52.064;113.478;2023-11-21T13:22:34;94110.31;;;-2.99
70415;BMP280;57837;52.064;113.478;2023-11-21T13:25:39;94100.84;;;-2.86
70415;BMP280;57837;52.064;113.478;2023-11-21T13:28:44;94104.75;;;-3.52
70415;BMP280;57837;52.064;113.478;2023-11-21T13:31:51;94111.41;;;-4.03
70415;BMP280;57837;52.064;113.478;2023-11-21T13:34:56;94115.22;;;-4.09
70415;BMP280;57837;52.064;113.478;2023-11-21T13:38:18;94120.84;;;-4.16
70415;BMP280;57837;52.064;113.478;2023-11-21T13:41:27;94120.16;;;-4.41
70415;BMP280;57837;52.064;113.478;2023-11-21T13:44:36;94127.63;;;-4.44
70415;BMP280;57837;52.064;113.478;2023-11-21T13:47:44;94126.63;;;-4.68
70415;BMP280;57837;52.064;113.478;2023-11-21T13:50:48;94115.25;;;-4.98
70415;BMP280;57837;52.064;113.478;2023-11-21T13:54:01;94113.03;;;-5.00
70415;BMP280;57837;52.064;113.478;2023-11-21T13:57:05;94107.03;;;-4.95
70415;BMP280;57837;52.064;113.478;2023-11-21T14:00:11;94112.59;;;-5.14
70415;BMP280;57837;52.064;113.478;2023-11-21T14:03:35;94136.03;;;-5.13
70415;BMP280;57837;52.064;113.478;2023-11-21T14:06:50;94123.03;;;-5.03
70415;BMP280;57837;52.064;113.478;2023-11-21T14:09:57;94119.75;;;-5.16
70415;BMP280;57837;52.064;113.478;2023-11-21T14:13:01;94122.25;;;-5.28
70415;BMP280;57837;52.064;113.478;2023-11-21T14:16:05;94121.91;;;-5.51
70415;BMP280;57837;52.064;113.478;2023-11-21T14:19:10;94129.78;;;-5.73
70415;BMP280;57837;52.064;113.478;2023-11-21T14:22:23;94128.41;;;-5.83
70415;BMP280;57837;52.064;113.478;2023-11-21T14:25:29;94130.31;;;-5.80
70415;BMP280;57837;52.064;113.478;2023-11-21T14:28:33;94138.28;;;-5.78
70415;BMP280;57837;52.064;113.478;2023-11-21T14:31:39;94137.00;;;-5.84
70415;BMP280;57837;52.064;113.478;2023-11-21T14:34:43;94133.69;;;-5.97
70415;BMP280;57837;52.064;113.478;2023-11-21T14:37:50;94138.13;;;-6.14
70415;BMP280;57837;52.064;113.478;2023-11-21T14:40:54;94139.25;;;-6.33
70415;BMP280;57837;52.064;113.478;2023-11-21T14:44:04;94136.81;;;-6.41
70415;BMP280;57837;52.064;113.478;2023-11-21T14:47:11;94133.81;;;-6.64
70415;BMP280;57837;52.064;113.478;2023-11-21T14:50:28;94136.50;;;-6.78
70415;BMP280;57837;52.064;113.478;2023-11-21T14:53:41;94135.53;;;-6.86
70415;BMP280;57837;52.064;113.478;2023-11-21T14:57:11;94134.41;;;-7.05
70415;BMP280;57837;52.064;113.478;2023-11-21T15:00:20;94134.13;;;-7.21
70415;BMP280;57837;52.064;113.478;2023-11-21T15:03:39;94140.97;;;-7.30
70415;BMP280;57837;52.064;113.478;2023-11-21T15:06:47;94142.44;;;-7.29
70415;BMP280;57837;52.064;113.478;2023-11-21T15:09:51;94144.06;;;-7.33
70415;BMP280;57837;52.064;113.478;2023-11-21T15:12:56;94137.13;;;-7.28
70415;BMP280;57837;52.064;113.478;2023-11-21T15:16:00;94132.53;;;-7.26
70415;BMP280;57837;52.064;113.478;2023-11-21T15:19:11;94136.50;;;-7.33
70415;BMP280;57837;52.064;113.478;2023-11-21T15:22:21;94137.56;;;-7.26
70415;BMP280;57837;52.064;113.478;2023-11-21T15:25:25;94143.63;;;-7.27
70415;BMP280;57837;52.064;113.478;2023-11-21T15:28:28;94150.13;;;-7.17
70415;BMP280;57837;52.064;113.478;2023-11-21T15:31:32;94136.50;;;-7.16
70415;BMP280;57837;52.064;113.478;2023-11-21T15:34:37;94151.75;;;-7.21
70415;BMP280;57837;52.064;113.478;2023-11-21T15:37:42;94146.44;;;-7.20
70415;BMP280;57837;52.064;113.478;2023-11-21T15:40:50;94144.59;;;-7.11
70415;BMP280;57837;52.064;113.478;2023-11-21T15:43:54;94151.72;;;-7.13
70415;BMP280;57837;52.064;113.478;2023-11-21T15:46:58;94143.75;;;-7.15
70415;BMP280;57837;52.064;113.478;2023-11-21T15:50:03;94139.47;;;-7.14
70415;BMP280;57837;52.064;113.478;2023-11-21T15:53:11;94147.44;;;-7.12
70415;BMP280;57837;52.064;113.478;2023-11-21T15:56:17;94143.56;;;-7.10
70415;BMP280;57837;52.064;113.478;2023-11-21T15:59:21;94152.94;;;-7.19
70415;BMP280;57837;52.064;113.478;2023-11-21T16:02:27;94148.69;;;-7.44
70415;BMP280;57837;52.064;113.478;2023-11-21T16:05:35;94154.75;;;-7.54
70415;BMP280;57837;52.064;113.478;2023-11-21T16:08:39;94154.31;;;-7.56
70415;BMP280;57837;52.064;113.478;2023-11-21T16:11:44;94163.59;;;-7.56
70415;BMP280;57837;52.064;113.478;2023-11-21T16:14:48;94161.09;;;-7.65
70415;BMP280;57837;52.064;113.478;2023-11-21T16:17:52;94166.59;;;-7.72
70415;BMP280;57837;52.064;113.478;2023-11-21T16:20:55;94160.50;;;-7.79
70415;BMP280;57837;52.064;113.478;2023-11-21T16:24:00;94160.22;;;-7.78
70415;BMP280;57837;52.064;113.478;2023-11-21T16:27:04;94156.66;;;-7.85
70415;BMP280;57837;52.064;113.478;2023-11-21T16:30:08;94149.72;;;-7.88
70415;BMP280;57837;52.064;113.478;2023-11-21T16:33:13;94155.34;;;-8.00
70415;BMP280;57837;52.064;113.478;2023-11-21T16:36:18;94150.13;;;-8.12
70415;BMP280;57837;52.064;113.478;2023-11-21T16:39:21;94150.13;;;-8.12
70415;BMP280;57837;52.064;113.478;2023-11-21T16:42:26;94154.69;;;-8.14
70415;BMP280;57837;52.064;113.478;2023-11-21T16:45:31;94154.44;;;-8.21
70415;BMP280;57837;52.064;113.478;2023-11-21T16:48:36;94157.78;;;-8.35
70415;BMP280;57837;52.064;113.478;2023-11-21T16:51:40;94157.91;;;-8.40
70415;BMP280;57837;52.064;113.478;2023-11-21T16:54:47;94166.00;;;-8.51
70415;BMP280;57837;52.064;113.478;2023-11-21T16:57:52;94166.13;;;-8.48
70415;BMP280;57837;52.064;113.478;2023-11-21T17:00:55;94158.78;;;-8.53
70415;BMP280;57837;52.064;113.478;2023-11-21T17:04:01;94163.03;;;-8.53
70415;BMP280;57837;52.064;113.478;2023-11-21T17:07:07;94166.75;;;-8.51
70415;BMP280;57837;52.064;113.478;2023-11-21T17:10:13;94176.28;;;-8.61
70415;BMP280;57837;52.064;113.478;2023-11-21T17:13:17;94186.38;;;-8.75
70415;BMP280;57837;52.064;113.478;2023-11-21T17:16:21;94186.63;;;-8.85
70415;BMP280;57837;52.064;113.478;2023-11-21T17:19:25;94186.78;;;-8.90
70415;BMP280;57837;52.064;113.478;2023-11-21T17:22:33;94183.63;;;-8.96
70415;BMP280;57837;52.064;113.478;2023-11-21T17:25:39;94191.16;;;-8.96
70415;BMP280;57837;52.064;113.478;2023-11-21T17:28:42;94188.94;;;-8.98
70415;BMP280;57837;52.064;113.478;2023-11-21T17:31:46;94197.91;;;-9.05
70415;BMP280;57837;52.064;113.478;2023-11-21T17:34:50;94201.50;;;-9.20
70415;BMP280;57837;52.064;113.478;2023-11-21T17:37:54;94203.50;;;-9.22
70415;BMP280;57837;52.064;113.478;2023-11-21T17:40:57;94207.63;;;-9.26
70415;BMP280;57837;52.064;113.478;2023-11-21T17:44:02;94204.25;;;-9.22